Time;durP1;ratioP1;P1;durP2;ratioP2;P2;SDS_P1;SDS_P2;PMS_P1;PMS_P2;Temp;Humidity;BMP_temperature;BMP_pressure;BME280_temperature;BME280_humidity;BME280_pressure;Samples;Min_cycle;Max_cycle;Signal;HPM_P1;HPM_P2
2023/03/09 00:01:44;;;;;;;21.70;9.63;;;;;;;1.45;100.00;99194.63;2613406;36;20492;-52
2023/03/09 00:04:16;;;;;;;20.30;9.50;;;;;;;1.44;100.00;99194.72;2613718;36;20049;-51
2023/03/09 00:06:46;;;;;;;17.85;9.02;;;;;;;1.28;100.00;99206.53;2612230;36;20044;-54
2023/03/09 00:09:15;;;;;;;16.33;8.18;;;;;;;1.21;100.00;99218.56;2615016;36;20023;-50
2023/03/09 00:11:45;;;;;;;18.73;8.70;;;;;;;1.20;100.00;99222.16;2614971;36;20034;-54
2023/03/09 00:14:13;;;;;;;19.85;8.48;;;;;;;1.34;100.00;99208.72;2614946;31;20438;-54
2023/03/09 00:16:45;;;;;;;16.98;7.50;;;;;;;1.25;100.00;99212.03;2614710;36;20443;-54
2023/03/09 00:19:20;;;;;;;17.13;8.35;;;;;;;1.16;100.00;99196.84;2614694;36;20224;-54
2023/03/09 00:21:51;;;;;;;18.02;8.38;;;;;;;1.27;100.00;99183.63;2615314;36;20026;-55
2023/03/09 00:24:24;;;;;;;18.85;8.50;;;;;;;1.16;100.00;99188.91;2615929;36;20536;-52
2023/03/09 00:26:54;;;;;;;15.20;7.72;;;;;;;1.08;100.00;99202.75;2614471;36;20038;-51
2023/03/09 00:29:22;;;;;;;20.92;8.85;;;;;;;1.12;100.00;99196.25;2614195;36;20034;-51
2023/03/09 00:31:53;;;;;;;17.70;7.93;;;;;;;1.19;100.00;99204.56;2615567;36;20049;-55
2023/03/09 00:34:22;;;;;;;20.52;8.60;;;;;;;1.38;100.00;99222.56;2615781;36;20031;-53
2023/03/09 00:36:51;;;;;;;19.45;9.85;;;;;;;1.31;100.00;99230.16;2616419;36;20606;-53
2023/03/09 00:39:20;;;;;;;25.17;10.57;;;;;;;1.35;100.00;99236.03;2615892;36;20056;-56
2023/03/09 00:41:49;;;;;;;20.75;9.85;;;;;;;1.35;100.00;99228.94;2615018;36;20042;-50
2023/03/09 00:44:17;;;;;;;21.38;10.98;;;;;;;1.42;100.00;99233.78;2614074;36;20042;-52
2023/03/09 00:46:45;;;;;;;21.75;10.23;;;;;;;1.47;100.00;99255.47;2615970;36;20043;-50
2023/03/09 00:49:18;;;;;;;21.05;9.63;;;;;;;1.55;100.00;99247.78;2614689;36;20027;-52
2023/03/09 00:51:46;;;;;;;23.25;10.60;;;;;;;1.53;100.00;99233.78;2613418;36;20040;-55
2023/03/09 00:54:16;;;;;;;21.20;11.20;;;;;;;1.39;100.00;99229.56;2614904;31;20038;-54
2023/03/09 00:56:45;;;;;;;22.88;10.43;;;;;;;1.42;100.00;99228.47;2614647;36;20315;-53
2023/03/09 00:59:13;;;;;;;25.35;10.70;;;;;;;1.36;100.00;99217.38;2614449;36;20034;-53
2023/03/09 01:01:45;;;;;;;21.83;10.98;;;;;;;1.28;100.00;99218.91;2616807;36;20026;-55
2023/03/09 01:04:17;;;;;;;20.30;9.63;;;;;;;1.21;100.00;99208.78;2615160;36;20038;-54
2023/03/09 01:06:45;;;;;;;19.90;10.05;;;;;;;1.28;100.00;99203.88;2615133;36;20031;-55
2023/03/09 01:09:13;;;;;;;23.60;10.43;;;;;;;1.36;100.00;99209.41;2612244;36;20049;-55
2023/03/09 01:11:41;;;;;;;20.30;9.02;;;;;;;1.28;100.00;99222.44;2614444;36;20030;-55
2023/03/09 01:14:10;;;;;;;22.02;10.00;;;;;;;1.29;100.00;99232.06;2615377;36;20432;-50
2023/03/09 01:16:38;;;;;;;20.30;9.02;;;;;;;1.34;100.00;99250.25;2613537;36;20038;-53
2023/03/09 01:19:07;;;;;;;22.67;10.10;;;;;;;1.35;100.00;99266.03;2615248;36;20042;-53
2023/03/09 01:21:37;;;;;;;19.13;9.23;;;;;;;1.39;100.00;99275.44;2613224;36;20444;-52
2023/03/09 01:24:06;;;;;;;19.73;9.82;;;;;;;1.29;100.00;99271.81;2614363;36;21304;-52
2023/03/09 01:26:34;;;;;;;17.98;9.05;;;;;;;1.36;100.00;99270.38;2613808;31;20039;-55
2023/03/09 01:29:03;;;;;;;20.10;9.40;;;;;;;1.44;100.00;99272.44;2613496;36;20030;-54
2023/03/09 01:31:32;;;;;;;19.58;9.15;;;;;;;1.19;100.00;99273.47;2615468;31;20018;-50
2023/03/09 01:34:00;;;;;;;19.77;8.73;;;;;;;1.25;100.00;99288.91;2615772;36;20035;-54
2023/03/09 01:36:28;;;;;;;16.23;8.47;;;;;;;1.31;100.00;99292.91;2615628;36;20162;-53
2023/03/09 01:38:59;;;;;;;18.27;7.78;;;;;;;1.35;100.00;99279.28;2615787;36;20038;-54
2023/03/09 01:41:28;;;;;;;16.30;8.02;;;;;;;1.33;100.00;99278.56;2614377;36;20038;-53
2023/03/09 01:43:56;;;;;;;21.17;8.32;;;;;;;1.36;100.00;99290.75;2614731;36;20046;-54
2023/03/09 01:46:58;;;;;;;17.67;8.55;;;;;;;1.22;100.00;99289.13;2618401;36;20100;-51
2023/03/09 01:49:34;;;;;;;15.63;7.95;;;;;;;1.28;100.00;99296.66;2619751;36;20031;-53
2023/03/09 01:52:08;;;;;;;17.17;8.18;;;;;;;1.19;100.00;99286.72;2619211;36;20030;-55
2023/03/09 01:54:41;;;;;;;15.13;8.32;;;;;;;1.26;100.00;99289.75;2619798;36;20026;-53
2023/03/09 01:57:15;;;;;;;19.05;8.30;;;;;;;1.28;100.00;99296.66;2619863;36;20045;-55
2023/03/09 01:59:46;;;;;;;16.70;8.18;;;;;;;1.33;100.00;99299.78;2618579;36;20038;-51
2023/03/09 02:02:18;;;;;;;14.82;7.70;;;;;;;1.33;100.00;99307.72;2617787;36;20049;-54
2023/03/09 02:04:51;;;;;;;15.88;8.23;;;;;;;1.34;100.00;99309.44;2619194;31;20042;-52
2023/03/09 02:07:21;;;;;;;17.55;7.88;;;;;;;1.34;100.00;99305.91;2618600;36;20142;-53
2023/03/09 02:09:54;;;;;;;15.00;7.40;;;;;;;1.45;100.00;99313.91;2619364;36;20097;-56
2023/03/09 02:12:24;;;;;;;15.82;7.90;;;;;;;1.46;100.00;99310.31;2617383;36;20424;-52
2023/03/09 02:14:54;;;;;;;17.67;8.02;;;;;;;1.36;100.00;99312.81;2618207;31;20022;-54
2023/03/09 02:17:25;;;;;;;17.55;8.20;;;;;;;1.36;100.00;99304.03;2617233;36;20053;-55
2023/03/09 02:20:15;;;;;;;19.23;8.68;;;;;;;1.46;100.00;99301.50;2617178;36;20078;-56
2023/03/09 02:22:45;;;;;;;19.45;9.30;;;;;;;1.43;100.00;99302.59;2617776;36;20026;-53
2023/03/09 02:25:25;;;;;;;18.38;8.70;;;;;;;1.37;100.00;99301.25;2617007;36;20041;-55
2023/03/09 02:27:56;;;;;;;18.17;8.77;;;;;;;1.38;100.00;99313.56;2617522;31;20022;-52
2023/03/09 02:30:26;;;;;;;20.70;9.05;;;;;;;1.43;100.00;99314.97;2617650;36;20046;-53
2023/03/09 02:33:05;;;;;;;19.27;8.75;;;;;;;1.40;100.00;99319.56;2618440;36;20038;-53
2023/03/09 02:35:34;;;;;;;17.75;7.90;;;;;;;1.49;100.00;99319.84;2618731;36;20045;-53
2023/03/09 02:40:47;;;;;;;18.13;8.77;;;;;;;1.32;100.00;99318.47;2617253;31;20184;-53
2023/03/09 02:43:18;;;;;;;19.75;8.95;;;;;;;1.56;100.00;99324.56;2617892;36;20447;-57
2023/03/09 02:45:47;;;;;;;20.80;8.85;;;;;;;1.55;100.00;99322.88;2617179;36;20598;-56
2023/03/09 02:48:15;;;;;;;21.80;10.68;;;;;;;1.46;100.00;99333.31;2619064;36;20038;-54
2023/03/09 02:50:43;;;;;;;19.90;10.48;;;;;;;1.26;100.00;99333.00;2619228;36;20042;-52
2023/03/09 02:53:12;;;;;;;22.05;9.93;;;;;;;1.16;100.00;99342.59;2618664;36;20068;-50
2023/03/09 02:55:41;;;;;;;19.83;10.43;;;;;;;1.10;100.00;99337.75;2619535;36;20030;-52
2023/03/09 02:58:12;;;;;;;19.48;9.13;;;;;;;1.07;100.00;99338.00;2618185;36;20030;-54
2023/03/09 03:00:40;;;;;;;19.95;9.93;;;;;;;1.22;100.00;99342.13;2617807;36;20598;-54
2023/03/09 03:03:09;;;;;;;20.90;10.40;;;;;;;1.31;100.00;99341.47;2617290;36;20070;-54
2023/03/09 03:05:37;;;;;;;23.95;10.85;;;;;;;1.24;100.00;99350.84;2618993;36;20537;-55
2023/03/09 03:08:06;;;;;;;22.23;9.82;;;;;;;1.35;100.00;99353.53;2618124;36;20423;-56
2023/03/09 03:10:34;;;;;;;25.52;11.45;;;;;;;1.30;100.00;99355.69;2618919;36;20034;-55
2023/03/09 03:13:03;;;;;;;23.30;10.30;;;;;;;1.40;100.00;99356.69;2617750;36;20543;-54
2023/03/09 03:15:34;;;;;;;20.67;9.77;;;;;;;1.42;100.00;99347.78;2618252;36;20045;-52
2023/03/09 03:18:02;;;;;;;23.05;11.50;;;;;;;1.29;100.00;99342.53;2617537;36;20038;-59
2023/03/09 03:20:30;;;;;;;23.92;10.63;;;;;;;1.33;100.00;99341.34;2618137;36;20447;-54
2023/03/09 03:22:59;;;;;;;22.33;10.55;;;;;;;1.38;100.00;99352.44;2617184;36;20550;-52
2023/03/09 03:25:28;;;;;;;23.48;10.13;;;;;;;1.25;100.00;99352.50;2617922;36;20042;-52
2023/03/09 03:27:56;;;;;;;27.10;11.30;;;;;;;1.15;100.00;99362.09;2617502;36;20061;-55
2023/03/09 03:30:24;;;;;;;23.50;11.25;;;;;;;1.14;100.00;99371.03;2617909;36;20045;-58
2023/03/09 03:32:55;;;;;;;23.37;10.90;;;;;;;1.25;100.00;99380.81;2617766;36;20603;-57
2023/03/09 03:35:24;;;;;;;28.98;11.73;;;;;;;1.26;100.00;99379.88;2619333;36;20042;-60
2023/03/09 03:37:52;;;;;;;26.43;12.27;;;;;;;1.32;100.00;99369.66;2616658;36;20034;-55
2023/03/09 03:40:22;;;;;;;24.20;11.48;;;;;;;1.30;100.00;99370.75;2618995;36;20415;-53
2023/03/09 03:42:51;;;;;;;25.55;11.88;;;;;;;1.25;100.00;99384.31;2615866;36;20118;-58
2023/03/09 03:45:20;;;;;;;25.30;11.88;;;;;;;1.26;100.00;99383.38;2618376;36;20037;-55
2023/03/09 03:47:48;;;;;;;;;;;;;;;1.44;100.00;99382.97;2615324;31;20038;-57
2023/03/09 03:50:19;;;;;;;31.35;13.40;;;;;;;1.40;100.00;99393.81;2616837;36;20443;-56
2023/03/09 03:52:48;;;;;;;31.60;13.82;;;;;;;1.58;100.00;99401.34;2613731;36;20061;-58
2023/03/09 03:55:16;;;;;;;29.80;13.00;;;;;;;1.54;100.00;99403.38;2613858;36;20034;-57
2023/03/09 03:57:44;;;;;;;26.92;12.63;;;;;;;1.46;100.00;99407.53;2614756;36;20162;-59
2023/03/09 04:00:14;;;;;;;27.00;12.48;;;;;;;1.52;100.00;99407.13;2614430;36;20050;-56
2023/03/09 04:02:42;;;;;;;;;;;;;;;1.52;100.00;99391.22;2613764;36;20732;-55
2023/03/09 04:05:11;;;;;;;29.88;13.13;;;;;;;1.63;100.00;99406.31;2614559;36;19959;-54
2023/03/09 04:07:42;;;;;;;26.73;12.23;;;;;;;1.57;100.00;99407.59;2615005;36;20046;-57
2023/03/09 04:10:12;;;;;;;27.60;12.73;;;;;;;1.53;100.00;99408.78;2614966;31;20034;-55
2023/03/09 04:12:40;;;;;;;27.25;12.38;;;;;;;1.44;100.00;99409.47;2614999;36;20038;-56
2023/03/09 04:15:09;;;;;;;28.45;12.48;;;;;;;1.56;100.00;99412.06;2615139;36;20038;-53
2023/03/09 04:17:38;;;;;;;27.42;11.90;;;;;;;1.40;100.00;99424.78;2613381;31;20038;-56
2023/03/09 04:20:07;;;;;;;29.90;12.47;;;;;;;1.45;100.00;99433.22;2613803;36;20093;-56
2023/03/09 04:22:36;;;;;;;24.48;11.90;;;;;;;1.58;100.00;99446.44;2613870;36;20049;-53
2023/03/09 04:25:07;;;;;;;27.98;11.80;;;;;;;1.49;100.00;99452.41;2614270;36;20555;-55
2023/03/09 04:27:35;;;;;;;26.80;12.18;;;;;;;1.51;100.00;99458.44;2612945;36;20034;-60
2023/03/09 04:30:04;;;;;;;26.25;12.20;;;;;;;1.58;100.00;99465.00;2613268;36;20053;-56
2023/03/09 04:32:32;;;;;;;26.23;11.95;;;;;;;1.57;100.00;99463.28;2613363;36;20038;-54
2023/03/09 04:35:00;;;;;;;26.25;13.60;;;;;;;1.54;100.00;99469.66;2613114;36;20470;-56
2023/03/09 04:37:29;;;;;;;26.58;12.68;;;;;;;1.54;100.00;99463.53;2615205;36;20405;-54
2023/03/09 04:39:57;;;;;;;33.38;14.18;;;;;;;1.55;100.00;99459.91;2613662;36;20034;-51
2023/03/09 04:42:28;;;;;;;26.45;11.98;;;;;;;1.49;100.00;99455.91;2614696;31;20038;-56
2023/03/09 04:44:56;;;;;;;29.33;14.15;;;;;;;1.57;100.00;99458.00;2613937;36;20038;-52
2023/03/09 04:47:25;;;;;;;24.08;12.00;;;;;;;1.64;100.00;99456.56;2614769;36;20050;-55
2023/03/09 04:49:53;;;;;;;26.83;12.25;;;;;;;1.71;100.00;99470.25;2613389;36;20098;-51
2023/03/09 04:52:21;;;;;;;25.65;10.43;;;;;;;1.82;100.00;99478.22;2614048;36;20535;-55
2023/03/09 04:54:50;;;;;;;27.38;12.80;;;;;;;1.90;100.00;99480.34;2614300;36;20042;-54
2023/03/09 04:57:22;;;;;;;26.48;12.80;;;;;;;1.80;100.00;99481.97;2615119;36;20057;-57
2023/03/09 04:59:53;;;;;;;24.38;12.07;;;;;;;1.71;100.00;99476.38;2613146;36;20045;-55
2023/03/09 05:02:21;;;;;;;25.10;11.55;;;;;;;1.80;100.00;99468.72;2614276;36;20038;-54
2023/03/09 05:04:49;;;;;;;25.25;11.65;;;;;;;1.68;100.00;99473.97;2614782;36;20542;-56
2023/03/09 05:07:18;;;;;;;27.15;12.00;;;;;;;1.69;100.00;99478.31;2614653;36;20034;-55
2023/03/09 05:09:46;;;;;;;25.38;11.80;;;;;;;1.87;100.00;99485.84;2614910;31;20475;-52
2023/03/09 05:12:14;;;;;;;24.95;12.35;;;;;;;1.80;100.00;99492.59;2614528;36;20026;-54
2023/03/09 05:14:43;;;;;;;24.95;11.45;;;;;;;1.86;100.00;99485.00;2614909;36;20042;-53
2023/03/09 05:17:14;;;;;;;25.13;11.82;;;;;;;2.01;100.00;99498.94;2613279;36;20043;-54
2023/03/09 05:19:42;;;;;;;25.60;11.88;;;;;;;1.91;100.00;99500.56;2614449;36;20057;-56
2023/03/09 05:22:10;;;;;;;23.45;11.40;;;;;;;1.94;100.00;99505.66;2614410;36;20493;-52
2023/03/09 05:24:39;;;;;;;28.15;13.00;;;;;;;2.06;100.00;99496.78;2614881;36;20043;-55
2023/03/09 05:27:08;;;;;;;26.97;12.20;;;;;;;1.89;100.00;99499.84;2614251;36;20026;-56
2023/03/09 05:29:36;;;;;;;30.13;13.05;;;;;;;2.10;100.00;99508.84;2614510;36;20039;-52
2023/03/09 05:32:05;;;;;;;24.23;11.65;;;;;;;2.08;100.00;99520.56;2611946;36;20045;-53
2023/03/09 05:34:37;;;;;;;24.07;11.83;;;;;;;2.00;100.00;99512.31;2614177;36;20038;-54
2023/03/09 05:37:05;;;;;;;26.15;11.90;;;;;;;1.89;100.00;99515.78;2615129;36;20299;-56
2023/03/09 05:39:36;;;;;;;23.30;13.13;;;;;;;1.65;100.00;99508.66;2613659;36;20069;-54
2023/03/09 05:42:05;;;;;;;22.77;11.10;;;;;;;1.73;100.00;99506.28;2613753;36;20042;-53
2023/03/09 05:44:34;;;;;;;24.45;12.27;;;;;;;1.77;100.00;99516.66;2615624;31;20044;-55
2023/03/09 05:47:02;;;;;;;24.27;11.40;;;;;;;1.81;100.00;99507.53;2613598;36;20031;-56
2023/03/09 05:49:30;;;;;;;25.20;11.63;;;;;;;1.87;100.00;99507.94;2612209;31;20057;-56
2023/03/09 05:52:02;;;;;;;26.17;13.23;;;;;;;1.59;100.00;99509.13;2613637;36;20052;-55
2023/03/09 05:54:30;;;;;;;29.60;12.98;;;;;;;1.63;100.00;99520.34;2613695;36;20424;-56
2023/03/09 05:56:59;;;;;;;30.15;14.57;;;;;;;1.71;100.00;99525.94;2613669;36;20038;-55
2023/03/09 05:59:27;;;;;;;30.83;13.80;;;;;;;1.64;100.00;99533.50;2614059;36;20170;-53
2023/03/09 06:01:56;;;;;;;25.00;13.18;;;;;;;1.79;100.00;99528.03;2612448;36;20436;-57
2023/03/09 06:04:24;;;;;;;27.98;13.77;;;;;;;1.72;100.00;99532.91;2613743;36;20042;-59
2023/03/09 06:06:52;;;;;;;33.47;13.73;;;;;;;1.78;100.00;99536.94;2613200;31;20468;-56
2023/03/09 06:09:23;;;;;;;31.02;12.88;;;;;;;1.77;100.00;99537.88;2613663;36;20038;-54
2023/03/09 06:11:52;;;;;;;27.63;12.77;;;;;;;1.84;100.00;99544.44;2615580;36;20034;-56
2023/03/09 06:14:20;;;;;;;26.10;13.30;;;;;;;1.92;100.00;99553.53;2615999;36;20393;-53
2023/03/09 06:16:49;;;;;;;32.17;13.90;;;;;;;1.98;100.00;99562.84;2614515;36;20030;-56
2023/03/09 06:19:17;;;;;;;24.92;12.52;;;;;;;1.88;100.00;99560.00;2615413;31;20064;-55
2023/03/09 06:21:46;;;;;;;27.08;12.98;;;;;;;1.83;100.00;99559.53;2614350;31;20026;-54
2023/03/09 06:24:14;;;;;;;26.95;13.30;;;;;;;1.97;100.00;99555.84;2613288;31;20045;-52
2023/03/09 06:26:45;;;;;;;26.13;12.45;;;;;;;2.03;100.00;99551.88;2613875;36;20601;-58
2023/03/09 06:29:13;;;;;;;28.15;12.63;;;;;;;2.17;100.00;99550.88;2614356;36;20050;-53
2023/03/09 06:31:42;;;;;;;31.48;13.48;;;;;;;2.15;100.00;99547.47;2610487;36;20114;-57
2023/03/09 06:34:10;;;;;;;28.10;13.07;;;;;;;2.01;100.00;99552.00;2612903;31;20548;-55
2023/03/09 06:36:38;;;;;;;28.15;12.75;;;;;;;1.99;100.00;99551.28;2615100;36;20447;-55
2023/03/09 06:39:07;;;;;;;26.27;12.95;;;;;;;2.02;100.00;99564.31;2616312;36;20022;-55
2023/03/09 06:41:36;;;;;;;27.77;12.57;;;;;;;1.92;100.00;99571.28;2615875;36;20566;-51
2023/03/09 06:44:07;;;;;;;26.42;13.50;;;;;;;2.06;100.00;99581.72;2613392;31;20543;-53
2023/03/09 06:46:35;;;;;;;26.77;12.95;;;;;;;1.97;100.00;99593.00;2614181;36;20023;-49
2023/03/09 06:49:04;;;;;;;25.65;12.18;;;;;;;1.96;100.00;99593.97;2615896;31;20038;-56
2023/03/09 06:51:32;;;;;;;28.83;13.40;;;;;;;1.79;100.00;99597.84;2616074;36;20034;-51
2023/03/09 06:54:00;;;;;;;27.20;12.68;;;;;;;1.98;100.00;99600.00;2616225;36;20038;-53
2023/03/09 06:56:29;;;;;;;24.58;12.40;;;;;;;2.07;100.00;99617.91;2615317;36;20035;-53
2023/03/09 06:58:57;;;;;;;24.85;13.05;;;;;;;2.02;100.00;99624.53;2616128;36;20039;-57
2023/03/09 07:01:28;;;;;;;29.25;13.55;;;;;;;2.05;100.00;99635.75;2615433;36;20042;-51
2023/03/09 07:03:57;;;;;;;26.30;12.30;;;;;;;2.03;100.00;99635.03;2616495;36;20567;-57
2023/03/09 07:06:25;;;;;;;28.23;13.45;;;;;;;2.21;100.00;99626.66;2616015;36;20044;-54
2023/03/09 07:08:53;;;;;;;26.08;12.88;;;;;;;2.24;100.00;99637.91;2615970;36;20035;-53
2023/03/09 07:11:22;;;;;;;27.90;13.48;;;;;;;2.24;100.00;99643.22;2615677;31;20057;-55
2023/03/09 07:13:50;;;;;;;24.63;11.82;;;;;;;1.99;100.00;99645.94;2616803;31;20554;-51
2023/03/09 07:16:19;;;;;;;26.58;12.93;;;;;;;2.26;100.00;99653.72;2615386;36;20540;-55
2023/03/09 07:18:50;;;;;;;26.43;12.73;;;;;;;2.26;100.00;99669.66;2616201;36;20137;-51
2023/03/09 07:21:18;;;;;;;26.77;12.90;;;;;;;2.23;100.00;99677.84;2615985;36;20267;-50
2023/03/09 07:23:47;;;;;;;26.52;12.88;;;;;;;2.31;100.00;99682.59;2615909;36;20034;-54
2023/03/09 07:26:15;;;;;;;25.67;12.35;;;;;;;2.38;100.00;99675.88;2615697;36;20045;-55
2023/03/09 07:28:43;;;;;;;26.35;13.07;;;;;;;2.33;100.00;99686.84;2617126;36;20023;-55
2023/03/09 07:31:14;;;;;;;27.48;12.65;;;;;;;2.42;100.00;99683.50;2616495;36;20041;-54
2023/03/09 07:33:43;;;;;;;23.45;12.30;;;;;;;2.41;100.00;99676.47;2617450;36;20439;-50
2023/03/09 07:36:14;;;;;;;29.73;14.05;;;;;;;2.25;100.00;99675.91;2614714;36;20034;-53
2023/03/09 07:38:42;;;;;;;25.30;12.25;;;;;;;2.40;100.00;99674.81;2616879;36;20038;-54
2023/03/09 07:41:11;;;;;;;29.63;12.93;;;;;;;2.52;100.00;99686.31;2616161;31;20023;-53
2023/03/09 07:43:43;;;;;;;28.80;13.85;;;;;;;2.41;100.00;99683.59;2614350;36;20045;-51
2023/03/09 07:46:12;;;;;;;27.77;13.50;;;;;;;2.56;100.00;99694.91;2615956;36;20018;-51
2023/03/09 07:48:40;;;;;;;24.90;12.35;;;;;;;2.56;100.00;99694.91;2616781;36;20034;-54
2023/03/09 07:51:09;;;;;;;26.20;11.65;;;;;;;2.68;100.00;99687.84;2616434;31;20061;-53
2023/03/09 07:53:41;;;;;;;30.52;14.10;;;;;;;2.69;100.00;99695.69;2617820;36;20542;-55
2023/03/09 07:56:10;;;;;;;25.73;12.63;;;;;;;2.54;100.00;99702.16;2615927;36;20035;-52
2023/03/09 07:58:40;;;;;;;27.48;12.27;;;;;;;2.57;100.00;99696.59;2616499;36;20049;-55
2023/03/09 08:01:14;;;;;;;22.67;11.68;;;;;;;2.55;100.00;99698.53;2615560;36;20030;-50
2023/03/09 08:03:42;;;;;;;26.75;13.27;;;;;;;2.44;100.00;99708.16;2616909;31;20042;-50
2023/03/09 08:06:11;;;;;;;25.10;13.27;;;;;;;2.47;100.00;99706.22;2616777;31;20042;-53
2023/03/09 08:08:42;;;;;;;24.30;11.73;;;;;;;2.56;100.00;99703.75;2616547;36;20057;-56
2023/03/09 08:11:13;;;;;;;28.70;13.18;;;;;;;2.72;100.00;99703.44;2616657;39;20420;-55
2023/03/09 08:13:42;;;;;;;24.27;11.63;;;;;;;2.67;100.00;99702.94;2615045;36;20043;-55
2023/03/09 08:16:11;;;;;;;27.48;13.35;;;;;;;2.74;100.00;99703.31;2614715;36;20416;-56
2023/03/09 08:18:39;;;;;;;26.17;12.40;;;;;;;2.82;100.00;99700.94;2612556;36;20034;-53
2023/03/09 08:21:09;;;;;;;24.00;11.73;;;;;;;2.79;100.00;99709.97;2614965;36;20026;-55
2023/03/09 08:23:40;;;;;;;27.33;13.45;;;;;;;2.91;100.00;99707.38;2614958;31;20129;-55
2023/03/09 08:26:12;;;;;;;28.08;13.30;;;;;;;2.95;100.00;99730.09;2613555;36;20140;-58
2023/03/09 08:28:41;;;;;;;31.38;14.80;;;;;;;2.90;100.00;99735.78;2615465;36;20041;-58
2023/03/09 08:31:11;;;;;;;28.65;13.82;;;;;;;3.03;100.00;99742.81;2614188;36;20038;-55
2023/03/09 08:33:40;;;;;;;31.52;14.73;;;;;;;2.95;100.00;99740.75;2615748;31;20046;-56
2023/03/09 08:36:17;;;;;;;29.70;14.90;;;;;;;3.07;100.00;99753.09;2613982;36;20034;-56
2023/03/09 08:38:47;;;;;;;28.83;13.70;;;;;;;2.98;100.00;99751.13;2613599;36;20045;-56
2023/03/09 08:41:18;;;;;;;29.40;13.35;;;;;;;3.15;100.00;99734.78;2614406;36;20048;-55
2023/03/09 08:43:47;;;;;;;32.03;14.60;;;;;;;3.19;100.00;99740.69;2614211;36;20027;-55
2023/03/09 08:46:16;;;;;;;30.13;13.50;;;;;;;3.17;100.00;99745.28;2614667;36;20038;-57
2023/03/09 08:48:45;;;;;;;30.02;13.57;;;;;;;3.25;100.00;99755.34;2614814;36;20026;-59
2023/03/09 08:51:14;;;;;;;28.75;13.10;;;;;;;3.39;100.00;99768.44;2616928;36;20578;-52
2023/03/09 08:53:42;;;;;;;29.15;13.35;;;;;;;3.82;100.00;99773.09;2616233;36;20030;-55
2023/03/09 08:56:13;;;;;;;28.23;13.00;;;;;;;3.82;100.00;99781.09;2616239;31;20034;-52
2023/03/09 08:58:44;;;;;;;27.25;13.38;;;;;;;3.88;100.00;99777.09;2616951;31;20275;-54
2023/03/09 09:01:12;;;;;;;29.55;13.93;;;;;;;3.81;100.00;99778.53;2616053;36;20038;-54
2023/03/09 09:03:41;;;;;;;28.63;13.77;;;;;;;3.90;100.00;99774.31;2616443;31;20555;-53
2023/03/09 09:06:12;;;;;;;29.33;13.60;;;;;;;3.92;100.00;99791.03;2616323;36;20034;-54
2023/03/09 09:08:40;;;;;;;26.35;13.25;;;;;;;4.00;100.00;99784.13;2615888;36;20026;-52
2023/03/09 09:11:10;;;;;;;24.85;11.50;;;;;;;3.65;100.00;99800.16;2615788;36;20535;-53
2023/03/09 09:13:39;;;;;;;25.60;12.65;;;;;;;3.43;100.00;99796.50;2616667;36;20050;-54
2023/03/09 09:16:12;;;;;;;29.38;13.75;;;;;;;3.50;100.00;99800.41;2615562;36;20084;-55
2023/03/09 09:18:41;;;;;;;25.63;12.15;;;;;;;3.55;100.00;99804.50;2616313;36;20027;-54
2023/03/09 09:21:12;;;;;;;24.77;11.65;;;;;;;3.50;100.00;99805.72;2616921;36;20467;-54
2023/03/09 09:23:43;;;;;;;27.42;13.02;;;;;;;3.36;100.00;99811.22;2613301;36;20522;-57
2023/03/09 09:26:12;;;;;;;26.73;13.23;;;;;;;3.31;100.00;99816.03;2615846;31;20126;-55
2023/03/09 09:28:42;;;;;;;25.63;11.55;;;;;;;3.33;100.00;99816.78;2616584;36;20081;-54
2023/03/09 09:31:16;;;;;;;29.50;13.73;;;;;;;3.39;100.00;99821.63;2615784;36;20023;-56
2023/03/09 09:33:44;;;;;;;24.15;12.35;;;;;;;3.49;100.00;99811.16;2616178;36;20034;-59
2023/03/09 09:36:14;;;;;;;29.63;13.98;;;;;;;3.61;100.00;99814.69;2616173;36;20043;-53
2023/03/09 09:38:43;;;;;;;24.75;12.80;;;;;;;3.84;100.00;99811.09;2615814;36;20042;-53
2023/03/09 09:41:19;;;;;;;25.75;12.98;;;;;;;3.80;100.00;99814.97;2615715;31;20034;-56
2023/03/09 09:43:50;;;;;;;29.17;13.73;;;;;;;3.85;100.00;99818.09;2616757;36;20435;-56
2023/03/09 09:46:23;;;;;;;24.52;12.63;;;;;;;3.98;100.00;99822.50;2616046;36;20042;-52
2023/03/09 09:48:52;;;;;;;28.17;13.65;;;;;;;3.76;100.00;99808.19;2616613;31;20419;-51
2023/03/09 09:51:47;;;;;;;29.25;13.13;;;;;;;3.75;100.00;99793.16;2616257;36;20030;-56
2023/03/09 09:54:27;;;;;;;26.50;12.68;;;;;;;3.53;100.00;99801.13;2616113;36;20033;-55
2023/03/09 09:57:00;;;;;;;29.70;14.05;;;;;;;3.59;100.00;99811.28;2616536;36;20514;-59
2023/03/09 09:59:35;;;;;;;26.42;12.25;;;;;;;3.64;100.00;99817.13;2616310;36;20038;-58
2023/03/09 10:02:22;;;;;;;28.95;13.57;;;;;;;3.95;100.00;99820.06;2615319;36;20042;-57
2023/03/09 10:04:58;;;;;;;26.70;13.00;;;;;;;4.04;100.00;99814.03;2616124;36;20034;-56
2023/03/09 10:07:27;;;;;;;26.13;12.95;;;;;;;3.92;100.00;99815.00;2616138;36;20172;-56
2023/03/09 10:09:59;;;;;;;26.77;12.85;;;;;;;3.82;100.00;99826.34;2616390;36;20415;-57
2023/03/09 10:12:27;;;;;;;25.55;12.20;;;;;;;4.10;100.00;99842.84;2615294;36;20552;-56
2023/03/09 10:17:45;;;;;;;26.75;12.95;;;;;;;3.81;100.00;99850.41;2618649;36;20192;-52
2023/03/09 10:20:18;;;;;;;33.05;17.35;;;;;;;3.94;100.00;99847.66;2620479;31;20026;-57
2023/03/09 10:22:50;;;;;;;26.75;13.77;;;;;;;3.98;100.00;99838.47;2621297;36;20499;-55
2023/03/09 10:25:22;;;;;;;25.35;12.55;;;;;;;4.13;100.00;99834.59;2620657;36;20046;-57
2023/03/09 10:27:59;;;;;;;25.70;13.00;;;;;;;4.25;100.00;99829.28;2620675;36;20045;-51
2023/03/09 10:30:38;;;;;;;25.35;12.63;;;;;;;4.06;100.00;99822.72;2619923;36;20061;-56
2023/03/09 10:33:17;;;;;;;28.60;14.13;;;;;;;4.11;100.00;99823.22;2620057;36;20042;-59
2023/03/09 10:35:53;;;;;;;24.85;12.88;;;;;;;4.21;100.00;99824.22;2620311;36;20050;-57
2023/03/09 10:38:23;;;;;;;28.40;13.13;;;;;;;4.27;100.00;99822.00;2620436;36;20046;-53
2023/03/09 10:40:53;;;;;;;26.40;13.20;;;;;;;4.41;100.00;99832.44;2619851;36;20045;-56
2023/03/09 10:43:26;;;;;;;28.38;13.75;;;;;;;4.24;100.00;99830.25;2618182;36;20628;-57
2023/03/09 10:45:55;;;;;;;26.30;12.90;;;;;;;4.49;100.00;99823.81;2616423;36;20034;-56
2023/03/09 10:48:28;;;;;;;26.77;12.95;;;;;;;4.52;100.00;99826.22;2617357;36;20551;-58
2023/03/09 10:50:59;;;;;;;28.35;14.57;;;;;;;4.46;100.00;99838.25;2616334;36;20038;-55
2023/03/09 10:53:33;;;;;;;23.23;12.30;;;;;;;4.16;100.00;99842.34;2617119;31;20045;-53
2023/03/09 10:56:17;;;;;;;27.63;12.60;;;;;;;4.29;100.00;99836.06;2616328;36;20034;-49
2023/03/09 10:58:45;;;;;;;26.02;12.25;;;;;;;4.24;100.00;99840.91;2616846;31;20042;-55
2023/03/09 11:01:25;;;;;;;28.10;12.95;;;;;;;4.42;100.00;99838.59;2616064;36;20038;-54
2023/03/09 11:03:56;;;;;;;24.67;12.00;;;;;;;4.31;100.00;99840.28;2619639;31;20026;-55
2023/03/09 11:06:33;;;;;;;26.45;13.43;;;;;;;4.09;100.00;99838.47;2619867;36;20046;-53
2023/03/09 11:09:08;;;;;;;26.92;13.10;;;;;;;4.39;100.00;99837.03;2617279;31;20315;-56
2023/03/09 11:11:37;;;;;;;26.42;12.45;;;;;;;4.33;100.00;99840.19;2616199;36;20033;-60
2023/03/09 11:14:06;;;;;;;27.90;13.65;;;;;;;4.39;100.00;99832.56;2614749;36;20045;-56
2023/03/09 11:16:36;;;;;;;23.90;12.70;;;;;;;4.26;100.00;99831.00;2614733;36;20030;-53
2023/03/09 11:19:14;;;;;;;25.55;12.57;;;;;;;4.62;100.00;99837.00;2617168;36;20578;-52
2023/03/09 11:21:51;;;;;;;28.27;12.70;;;;;;;4.71;100.00;99846.94;2618974;36;20038;-55
2023/03/09 11:24:20;;;;;;;27.25;13.18;;;;;;;4.86;100.00;99839.53;2618209;31;20031;-55
2023/03/09 11:26:53;;;;;;;27.55;13.25;;;;;;;4.65;100.00;99842.97;2618413;36;20034;-52
2023/03/09 11:29:31;;;;;;;22.40;11.57;;;;;;;4.57;100.00;99840.06;2613441;36;20599;-58
2023/03/09 11:32:00;;;;;;;25.25;12.57;;;;;;;4.70;100.00;99840.75;2614808;36;20034;-52
2023/03/09 11:34:35;;;;;;;25.65;13.13;;;;;;;4.69;100.00;99840.88;2614807;31;20065;-53
2023/03/09 11:37:09;;;;;;;26.60;13.77;;;;;;;4.66;100.00;99844.63;2613846;36;20034;-51
2023/03/09 11:39:44;;;;;;;26.20;12.77;;;;;;;4.56;100.00;99843.69;2614014;36;20038;-57